Time;durP1;ratioP1;P1;durP2;ratioP2;P2;SDS_P1;SDS_P2;PMS_P1;PMS_P2;Temp;Humidity;BMP_temperature;BMP_pressure;BME280_temperature;BME280_humidity;BME280_pressure;Samples;Min_cycle;Max_cycle;Signal;HPM_P1;HPM_P2
2023/07/27 00:01:00;;;;;;;10.93;5.10;;;19.50;99.90;;;;;;7307823;19;20991;-79
2023/07/27 00:03:26;;;;;;;12.60;5.63;;;19.50;99.90;;;;;;7286611;19;20521;-78
2023/07/27 00:05:51;;;;;;;11.80;5.13;;;19.50;99.90;;;;;;7285221;19;20215;-78
2023/07/27 00:08:17;;;;;;;13.10;5.67;;;19.50;99.90;;;;;;7284595;19;20659;-78
2023/07/27 00:10:43;;;;;;;13.13;5.27;;;19.50;99.90;;;;;;7287133;19;20699;-78
2023/07/27 00:13:08;;;;;;;11.73;5.57;;;19.50;99.90;;;;;;7285617;19;20265;-78
2023/07/27 00:15:34;;;;;;;10.60;5.50;;;19.40;99.90;;;;;;7286244;19;20234;-77
2023/07/27 00:18:00;;;;;;;14.73;5.77;;;19.40;99.90;;;;;;7306822;19;20192;-79
2023/07/27 00:20:25;;;;;;;11.87;5.40;;;19.40;99.90;;;;;;7286524;19;20188;-77
2023/07/27 00:22:51;;;;;;;13.77;5.83;;;19.50;99.90;;;;;;7284516;19;20203;-78
2023/07/27 00:25:17;;;;;;;11.70;5.73;;;19.30;99.90;;;;;;7284886;19;20220;-79
2023/07/27 00:27:43;;;;;;;14.23;5.83;;;19.20;99.90;;;;;;7282982;19;20251;-78
2023/07/27 00:30:09;;;;;;;13.87;6.13;;;19.10;99.90;;;;;;7284327;19;20183;-77
2023/07/27 00:32:34;;;;;;;14.87;6.03;;;19.10;99.90;;;;;;7285517;19;20690;-77
2023/07/27 00:35:00;;;;;;;13.17;6.03;;;19.10;99.90;;;;;;7307091;19;20209;-78
2023/07/27 00:37:26;;;;;;;14.53;5.57;;;19.00;99.90;;;;;;7285222;19;20176;-78
2023/07/27 00:39:51;;;;;;;15.43;5.70;;;18.80;99.90;;;;;;7286398;19;20170;-78
2023/07/27 00:42:17;;;;;;;12.63;5.60;;;18.70;99.90;;;;;;7283961;19;20264;-77
2023/07/27 00:44:43;;;;;;;11.33;5.27;;;18.60;99.90;;;;;;7281392;19;20185;-77
2023/07/27 00:47:08;;;;;;;12.90;6.03;;;18.60;99.90;;;;;;7283038;19;20209;-78
2023/07/27 00:49:35;;;;;;;12.17;5.60;;;18.60;99.90;;;;;;7283407;19;20188;-78
2023/07/27 00:52:06;;;;;;;11.70;5.53;;;18.50;99.90;;;;;;7307016;19;20181;-78
2023/07/27 00:54:32;;;;;;;13.03;6.00;;;18.40;99.90;;;;;;7274073;19;20183;-78
2023/07/27 00:56:59;;;;;;;15.07;5.90;;;18.40;99.90;;;;;;7305795;19;20214;-78
2023/07/27 00:59:24;;;;;;;13.10;5.60;;;18.40;99.90;;;;;;7283454;19;20190;-78
2023/07/27 01:01:51;;;;;;;13.33;5.80;;;18.50;99.90;;;;;;7281734;19;20215;-78
2023/07/27 01:04:17;;;;;;;11.47;5.50;;;18.50;99.90;;;;;;7283014;19;20186;-78
2023/07/27 01:06:42;;;;;;;14.27;5.30;;;18.50;99.90;;;;;;7279871;19;20184;-77
2023/07/27 01:09:08;;;;;;;11.77;6.00;;;18.40;99.90;;;;;;7282900;19;20247;-77
2023/07/27 01:11:42;;;;;;;12.73;5.37;;;18.20;99.90;;;;;;7284241;19;20613;-78
2023/07/27 01:14:28;;;;;;;14.03;5.40;;;18.20;99.90;;;;;;7284322;19;20192;-78
2023/07/27 01:17:03;;;;;;;13.40;5.83;;;18.20;99.90;;;;;;7283092;19;20181;-77
2023/07/27 01:20:09;;;;;;;12.37;5.63;;;18.20;99.90;;;;;;7285497;19;20188;-79
2023/07/27 01:22:49;;;;;;;11.83;5.30;;;18.20;99.90;;;;;;7078853;19;2004784;-77
2023/07/27 01:25:39;;;;;;;10.80;5.33;;;18.20;99.90;;;;;;7283611;19;20263;-77
2023/07/27 01:28:19;;;;;;;10.90;5.60;;;18.20;99.90;;;;;;7261054;19;20191;-77
2023/07/27 01:31:17;;;;;;;11.20;5.33;;;18.20;99.90;;;;;;7284902;19;20193;-77
2023/07/27 01:33:48;;;;;;;11.97;5.20;;;18.00;99.90;;;;;;7181472;19;2004466;-77
2023/07/27 01:36:19;;;;;;;13.50;5.17;;;17.90;99.90;;;;;;7283583;19;20209;-78
2023/07/27 01:38:46;;;;;;;13.20;4.77;;;17.80;99.90;;;;;;7283981;19;20185;-77
2023/07/27 01:41:15;;;;;;;9.30;4.30;;;17.90;99.90;;;;;;7283169;19;20177;-77
2023/07/27 01:43:43;;;;;;;10.23;4.53;;;17.90;99.90;;;;;;7282803;19;20738;-77
2023/07/27 01:46:11;;;;;;;11.23;4.00;;;17.90;99.90;;;;;;7282018;19;20653;-76
2023/07/27 01:48:39;;;;;;;12.43;4.17;;;17.90;99.90;;;;;;7283840;19;20185;-77
2023/07/27 01:51:06;;;;;;;8.63;3.50;;;17.90;99.90;;;;;;7283350;19;20222;-77
2023/07/27 01:53:35;;;;;;;9.70;3.20;;;17.70;99.90;;;;;;7282470;19;20181;-76
2023/07/27 01:56:04;;;;;;;10.03;3.27;;;17.50;99.90;;;;;;7301923;19;20620;-77
2023/07/27 01:58:31;;;;;;;7.10;2.60;;;17.30;99.90;;;;;;7303553;19;20525;-77
2023/07/27 02:00:58;;;;;;;8.37;3.10;;;17.30;99.90;;;;;;7280350;19;20181;-78
2023/07/27 02:03:25;;;;;;;7.40;3.30;;;17.20;99.90;;;;;;7281871;19;20314;-78
2023/07/27 02:05:51;;;;;;;7.80;3.23;;;17.20;99.90;;;;;;7276922;19;20190;-77
2023/07/27 02:08:17;;;;;;;9.07;3.27;;;17.20;99.90;;;;;;7281544;19;20199;-78
2023/07/27 02:10:50;;;;;;;7.00;3.07;;;17.20;99.90;;;;;;7281352;19;20193;-78
2023/07/27 02:13:39;;;;;;;8.53;2.80;;;17.10;99.90;;;;;;7280788;19;20190;-78
2023/07/27 02:16:12;;;;;;;9.83;3.33;;;17.00;99.90;;;;;;7259172;19;20205;-77
2023/07/27 02:18:39;;;;;;;8.37;3.13;;;17.00;99.90;;;;;;7279842;19;20201;-78
2023/07/27 02:21:07;;;;;;;7.10;3.20;;;17.00;99.90;;;;;;7281322;19;20211;-78
2023/07/27 02:23:34;;;;;;;9.60;3.23;;;16.80;99.90;;;;;;7278726;19;20194;-79
2023/07/27 02:26:01;;;;;;;8.93;3.07;;;16.80;99.90;;;;;;7303837;19;20199;-78
2023/07/27 02:28:28;;;;;;;8.63;3.43;;;16.80;99.90;;;;;;7281884;19;20192;-78
2023/07/27 02:30:53;;;;;;;9.63;3.67;;;16.80;99.90;;;;;;7281307;19;20232;-79
2023/07/27 02:33:19;;;;;;;7.43;3.47;;;16.70;99.90;;;;;;7282192;19;20210;-79
2023/07/27 02:35:45;;;;;;;9.53;3.30;;;16.70;99.90;;;;;;7280857;19;20185;-78
2023/07/27 02:38:11;;;;;;;10.53;3.67;;;16.80;99.90;;;;;;7282738;19;20529;-78
2023/07/27 02:40:36;;;;;;;7.43;3.30;;;16.80;99.90;;;;;;7280927;19;20177;-78
2023/07/27 02:43:05;;;;;;;6.53;3.20;;;16.70;99.90;;;;;;7279751;19;20185;-78
2023/07/27 02:45:34;;;;;;;7.33;3.40;;;16.80;99.90;;;;;;7302577;19;20181;-78
2023/07/27 02:48:00;;;;;;;7.10;3.50;;;16.80;99.90;;;;;;7282161;19;20184;-78
2023/07/27 02:50:25;;;;;;;7.70;3.60;;;16.80;99.90;;;;;;7285358;19;20187;-78
2023/07/27 02:53:08;;;;;;;8.03;3.60;;;16.80;99.90;;;;;;7186346;19;2004657;-78
2023/07/27 02:55:37;;;;;;;8.70;3.60;;;16.80;99.90;;;;;;7286709;19;20188;-78
2023/07/27 02:58:02;;;;;;;6.97;3.10;;;16.70;99.90;;;;;;7291590;19;20210;-78
2023/07/27 03:00:33;;;;;;;7.37;3.40;;;16.60;99.90;;;;;;7296971;19;20181;-78
2023/07/27 03:03:00;;;;;;;8.00;3.30;;;16.70;99.90;;;;;;7308559;19;20192;-79
2023/07/27 03:05:27;;;;;;;8.57;3.90;;;16.70;99.90;;;;;;7285358;19;20188;-78
2023/07/27 03:07:53;;;;;;;8.83;3.90;;;16.70;99.90;;;;;;7286966;19;20181;-78
2023/07/27 03:10:24;;;;;;;7.17;3.60;;;16.80;99.90;;;;;;7287360;19;20295;-77
2023/07/27 03:12:50;;;;;;;8.67;3.63;;;16.80;99.90;;;;;;7287707;19;20209;-78
2023/07/27 03:15:15;;;;;;;6.23;3.50;;;16.80;99.90;;;;;;7287340;19;20193;-78
2023/07/27 03:17:42;;;;;;;7.33;3.70;;;16.90;99.90;;;;;;7286840;19;20699;-78
2023/07/27 03:20:09;;;;;;;8.30;3.63;;;16.90;99.90;;;;;;7286148;19;20185;-78
2023/07/27 03:22:34;;;;;;;9.27;4.00;;;16.90;99.90;;;;;;7285797;19;20213;-78
2023/07/27 03:25:00;;;;;;;8.30;4.17;;;16.90;99.90;;;;;;7308994;19;20197;-78
2023/07/27 03:27:26;;;;;;;9.70;4.17;;;16.90;99.90;;;;;;7286444;19;20189;-78
2023/07/27 03:29:52;;;;;;;9.47;4.10;;;16.90;99.90;;;;;;7286721;19;21157;-78
2023/07/27 03:32:18;;;;;;;9.13;3.80;;;16.90;99.90;;;;;;7285839;19;20196;-78
2023/07/27 03:34:44;;;;;;;7.20;3.90;;;16.80;99.90;;;;;;7285531;19;20194;-78
2023/07/27 03:37:10;;;;;;;9.43;3.93;;;16.80;99.90;;;;;;7285225;19;20189;-78
2023/07/27 03:39:36;;;;;;;8.17;3.80;;;16.70;99.90;;;;;;7287430;19;20196;-78
2023/07/27 03:42:02;;;;;;;7.50;4.07;;;16.80;99.90;;;;;;7299092;19;20196;-77
2023/07/27 03:44:28;;;;;;;9.20;4.00;;;16.90;99.90;;;;;;7306980;19;20200;-77
2023/07/27 03:46:54;;;;;;;6.77;3.50;;;17.00;99.90;;;;;;7286407;19;20209;-78
2023/07/27 03:49:19;;;;;;;10.13;3.90;;;17.00;99.90;;;;;;7285573;19;20553;-78
2023/07/27 03:51:45;;;;;;;7.50;4.00;;;17.00;99.90;;;;;;7287799;19;20194;-78
2023/07/27 03:54:11;;;;;;;8.30;4.30;;;17.00;99.90;;;;;;7287034;19;20685;-78
2023/07/27 03:56:38;;;;;;;7.77;4.03;;;17.10;99.90;;;;;;7285726;19;20535;-78
2023/07/27 03:59:04;;;;;;;9.97;4.63;;;17.10;99.90;;;;;;7285554;19;20181;-78
2023/07/27 04:01:31;;;;;;;9.00;4.83;;;17.10;99.90;;;;;;7304181;19;20187;-78
2023/07/27 04:03:56;;;;;;;12.03;5.30;;;17.10;99.90;;;;;;7284164;19;20663;-79
2023/07/27 04:06:22;;;;;;;9.03;5.10;;;17.20;99.90;;;;;;7285524;19;20209;-78
2023/07/27 04:08:48;;;;;;;11.27;4.97;;;17.30;99.90;;;;;;7284565;19;20188;-78
2023/07/27 04:11:14;;;;;;;9.50;5.20;;;17.30;99.90;;;;;;7286577;19;20181;-79
2023/07/27 04:13:39;;;;;;;9.93;5.20;;;17.30;99.90;;;;;;7286404;19;20200;-78
2023/07/27 04:16:05;;;;;;;10.90;4.93;;;17.30;99.90;;;;;;7285725;19;20248;-78
2023/07/27 04:18:31;;;;;;;8.93;5.20;;;17.40;99.90;;;;;;7305800;19;20181;-78
2023/07/27 04:20:57;;;;;;;9.97;4.93;;;17.40;99.90;;;;;;7285898;19;20612;-78
2023/07/27 04:23:24;;;;;;;10.40;5.57;;;17.50;99.90;;;;;;7286874;19;20682;-78
2023/07/27 04:25:49;;;;;;;11.13;6.10;;;17.50;99.90;;;;;;7283570;19;20201;-78
2023/07/27 04:28:15;;;;;;;12.20;6.00;;;17.60;99.90;;;;;;7285117;19;20208;-77
2023/07/27 04:30:42;;;;;;;9.13;5.60;;;17.70;99.90;;;;;;7285546;19;20185;-78
2023/07/27 04:33:07;;;;;;;12.00;5.63;;;17.60;99.90;;;;;;7285797;19;20289;-78
2023/07/27 04:35:33;;;;;;;8.60;5.07;;;17.70;99.90;;;;;;7291239;19;20185;-77
2023/07/27 04:37:59;;;;;;;11.30;5.47;;;17.70;99.90;;;;;;7304863;19;20189;-77
2023/07/27 04:40:25;;;;;;;11.87;6.23;;;17.70;99.90;;;;;;7284148;19;20206;-79
2023/07/27 04:42:50;;;;;;;10.90;6.07;;;17.70;99.90;;;;;;7283658;19;20196;-77
2023/07/27 04:45:16;;;;;;;10.80;5.80;;;17.80;99.90;;;;;;7283693;19;20661;-77
2023/07/27 04:47:42;;;;;;;13.03;5.93;;;17.70;99.90;;;;;;7283158;19;20252;-77
2023/07/27 04:50:08;;;;;;;12.27;5.53;;;17.80;99.90;;;;;;7282093;19;20193;-77
2023/07/27 04:52:33;;;;;;;10.27;6.17;;;17.90;99.90;;;;;;7288012;19;20260;-78
2023/07/27 04:54:59;;;;;;;11.80;6.17;;;17.90;99.90;;;;;;7303618;19;20180;-78
2023/07/27 04:57:25;;;;;;;11.60;6.63;;;17.90;99.90;;;;;;7277127;19;20184;-78
2023/07/27 04:59:50;;;;;;;13.43;6.30;;;18.00;99.90;;;;;;7279275;19;20255;-77
2023/07/27 05:02:16;;;;;;;12.03;5.90;;;18.00;99.90;;;;;;7280574;19;20663;-77
2023/07/27 05:04:42;;;;;;;13.40;6.57;;;18.00;99.90;;;;;;7281723;19;20208;-79
2023/07/27 05:07:08;;;;;;;13.73;6.53;;;18.00;99.90;;;;;;7282956;19;20185;-76
2023/07/27 05:09:33;;;;;;;11.33;6.57;;;18.00;99.90;;;;;;7288024;19;20189;-76
2023/07/27 05:11:59;;;;;;;11.77;6.43;;;18.00;99.90;;;;;;7305154;19;20180;-77
2023/07/27 05:14:25;;;;;;;11.60;6.07;;;18.00;99.90;;;;;;7283849;19;21052;-77
2023/07/27 05:16:51;;;;;;;13.37;6.80;;;18.10;99.90;;;;;;7284021;19;20213;-78
2023/07/27 05:19:16;;;;;;;15.87;6.37;;;18.10;99.90;;;;;;7285359;19;20195;-77
2023/07/27 05:21:42;;;;;;;12.33;6.30;;;18.10;99.90;;;;;;7284651;19;20257;-77
2023/07/27 05:24:08;;;;;;;13.03;6.50;;;18.20;99.90;;;;;;7283472;19;20193;-78
2023/07/27 05:26:33;;;;;;;13.30;5.87;;;18.20;99.90;;;;;;7290067;19;20587;-77
2023/07/27 05:29:00;;;;;;;14.77;6.30;;;18.20;99.90;;;;;;7306477;19;20999;-79
2023/07/27 05:31:25;;;;;;;13.80;5.97;;;18.30;99.90;;;;;;7283473;19;20245;-78
2023/07/27 05:33:51;;;;;;;11.33;5.80;;;18.30;99.90;;;;;;7283921;19;20188;-78
2023/07/27 05:36:17;;;;;;;12.77;5.60;;;18.20;99.90;;;;;;7282662;19;20185;-79
2023/07/27 05:38:42;;;;;;;10.77;5.80;;;18.30;99.90;;;;;;7284299;19;20185;-78
2023/07/27 05:41:08;;;;;;;11.00;5.77;;;18.40;99.90;;;;;;7283518;19;20188;-78
2023/07/27 05:43:34;;;;;;;12.60;5.80;;;18.50;99.90;;;;;;7289398;19;20206;-76
2023/07/27 05:45:59;;;;;;;12.40;5.70;;;18.40;99.90;;;;;;7303766;19;20185;-77
2023/07/27 05:48:25;;;;;;;14.90;5.90;;;18.50;99.90;;;;;;7283507;19;20188;-78
2023/07/27 05:50:54;;;;;;;12.17;5.57;;;18.50;99.90;;;;;;7283283;19;20537;-77
2023/07/27 05:53:20;;;;;;;12.50;5.53;;;18.50;99.90;;;;;;7284336;19;20193;-78
2023/07/27 05:55:46;;;;;;;12.13;5.30;;;18.50;99.90;;;;;;7282891;19;20188;-77
2023/07/27 05:58:11;;;;;;;11.73;5.20;;;18.50;99.90;;;;;;7281706;19;20200;-78
2023/07/27 06:00:37;;;;;;;10.27;5.03;;;18.50;99.90;;;;;;7280791;19;20218;-78
2023/07/27 06:03:03;;;;;;;12.33;4.70;;;18.50;99.90;;;;;;7297548;19;20688;-76
2023/07/27 06:05:29;;;;;;;9.67;4.87;;;18.50;99.90;;;;;;7298366;19;20559;-78
2023/07/27 06:07:54;;;;;;;9.20;4.70;;;18.50;99.90;;;;;;7281482;19;20196;-78
2023/07/27 06:10:20;;;;;;;9.80;4.37;;;18.60;99.90;;;;;;7280041;19;20186;-78
2023/07/27 06:12:46;;;;;;;7.93;3.73;;;18.60;99.90;;;;;;7282971;19;20197;-78
2023/07/27 06:15:12;;;;;;;6.30;3.60;;;18.60;99.90;;;;;;7281563;19;20184;-78
2023/07/27 06:17:37;;;;;;;7.07;3.87;;;18.60;99.90;;;;;;7283088;19;20193;-77
2023/07/27 06:20:05;;;;;;;7.13;4.10;;;18.70;99.90;;;;;;7296878;19;20228;-78
2023/07/27 06:22:31;;;;;;;6.40;3.70;;;18.60;99.90;;;;;;7302150;19;20192;-78
2023/07/27 06:24:57;;;;;;;7.70;4.10;;;18.70;99.90;;;;;;7284486;19;20293;-78
2023/07/27 06:27:22;;;;;;;7.80;3.73;;;18.70;99.90;;;;;;7287516;19;20197;-78
2023/07/27 06:29:48;;;;;;;7.10;3.50;;;18.70;99.90;;;;;;7287965;19;20206;-78
2023/07/27 06:32:14;;;;;;;9.87;3.93;;;18.80;99.90;;;;;;7290832;19;20192;-78
2023/07/27 06:34:41;;;;;;;8.43;3.60;;;18.80;99.90;;;;;;7287151;19;20685;-78
2023/07/27 06:37:07;;;;;;;7.50;3.60;;;18.90;99.90;;;;;;7288240;19;20195;-79
2023/07/27 06:39:33;;;;;;;6.30;3.37;;;18.90;99.90;;;;;;7311697;19;20181;-78
2023/07/27 06:41:59;;;;;;;9.23;3.90;;;18.90;99.90;;;;;;7290237;19;20189;-77
2023/07/27 06:44:30;;;;;;;6.83;3.90;;;18.90;99.90;;;;;;7289504;19;20599;-78
2023/07/27 06:46:56;;;;;;;8.47;3.97;;;18.90;99.90;;;;;;7287312;19;20181;-78
2023/07/27 06:49:22;;;;;;;6.10;3.90;;;19.00;99.90;;;;;;7288373;19;20189;-78
2023/07/27 06:51:47;;;;;;;8.00;3.87;;;19.00;99.90;;;;;;7287144;19;20186;-76
2023/07/27 06:54:13;;;;;;;6.70;3.83;;;19.00;99.90;;;;;;7288068;19;20185;-77
2023/07/27 06:56:39;;;;;;;6.70;3.60;;;18.80;99.90;;;;;;7289569;19;20189;-78
2023/07/27 06:59:04;;;;;;;6.90;3.80;;;18.70;99.90;;;;;;7289468;19;20253;-78
2023/07/27 07:01:30;;;;;;;7.77;3.60;;;18.70;99.90;;;;;;7312556;19;20537;-78
2023/07/27 07:03:56;;;;;;;6.23;3.73;;;18.80;99.90;;;;;;7286419;19;20202;-77
2023/07/27 07:06:22;;;;;;;7.73;3.80;;;18.80;99.90;;;;;;7288201;19;20625;-79
2023/07/27 07:08:48;;;;;;;7.37;3.70;;;18.90;99.90;;;;;;7286202;19;20193;-78
2023/07/27 07:11:14;;;;;;;6.83;3.50;;;18.90;99.90;;;;;;7288237;19;20644;-78
2023/07/27 07:13:39;;;;;;;9.13;3.93;;;18.80;99.90;;;;;;7288773;19;20198;-78
2023/07/27 07:16:05;;;;;;;8.03;3.67;;;18.90;99.90;;;;;;7287795;19;20719;-78
2023/07/27 07:18:31;;;;;;;6.60;3.97;;;18.90;99.90;;;;;;7310686;19;20636;-78
2023/07/27 07:20:56;;;;;;;8.37;4.23;;;18.80;99.90;;;;;;7288253;19;20530;-78
2023/07/27 07:23:22;;;;;;;10.47;4.40;;;18.90;99.90;;;;;;7286849;19;20316;-78
2023/07/27 07:25:48;;;;;;;7.80;4.17;;;18.90;99.90;;;;;;7286856;19;20216;-79
2023/07/27 07:28:13;;;;;;;8.13;4.20;;;18.80;99.90;;;;;;7287382;19;20221;-79
2023/07/27 07:30:41;;;;;;;11.77;4.40;;;18.90;99.90;;;;;;7287873;19;20219;-79
2023/07/27 07:33:07;;;;;;;9.87;4.03;;;18.90;99.90;;;;;;7287354;19;20194;-79
2023/07/27 07:35:38;;;;;;;7.60;4.53;;;19.00;99.90;;;;;;7305579;19;20289;-77
2023/07/27 07:38:05;;;;;;;8.73;3.83;;;19.00;99.90;;;;;;7298598;19;20182;-78
2023/07/27 07:40:31;;;;;;;8.73;3.90;;;18.80;99.90;;;;;;7309592;19;20272;-78
2023/07/27 07:42:56;;;;;;;6.50;3.30;;;18.90;99.90;;;;;;7287269;19;20215;-79
2023/07/27 07:45:22;;;;;;;5.97;2.90;;;18.90;99.90;;;;;;7289038;19;21126;-79
2023/07/27 07:47:48;;;;;;;4.90;2.40;;;19.00;99.90;;;;;;7285673;19;20632;-79
2023/07/27 07:50:14;;;;;;;6.07;2.57;;;19.00;99.90;;;;;;7288240;19;20547;-78
2023/07/27 07:52:39;;;;;;;3.10;1.90;;;18.90;99.90;;;;;;7287529;19;20188;-78
2023/07/27 07:55:07;;;;;;;3.63;1.73;;;18.90;99.90;;;;;;7286595;19;20961;-79
2023/07/27 07:57:33;;;;;;;4.50;1.50;;;18.90;99.90;;;;;;7308723;19;20245;-79
2023/07/27 07:59:58;;;;;;;2.17;1.30;;;19.00;99.90;;;;;;7286074;19;20269;-78
2023/07/27 08:02:24;;;;;;;2.70;1.40;;;19.00;99.90;;;;;;7287418;19;20186;-80
2023/07/27 08:04:50;;;;;;;2.47;1.00;;;19.10;99.90;;;;;;7287750;19;20693;-78
2023/07/27 08:07:15;;;;;;;1.80;0.80;;;19.20;99.90;;;;;;7285875;19;20197;-78
2023/07/27 08:09:41;;;;;;;1.40;0.80;;;19.20;99.90;;;;;;7288245;19;20189;-78
2023/07/27 08:12:07;;;;;;;1.50;0.70;;;19.30;99.90;;;;;;7285686;19;20299;-78
2023/07/27 08:14:33;;;;;;;2.47;0.70;;;19.20;99.90;;;;;;7309476;19;20211;-78
2023/07/27 08:16:58;;;;;;;2.90;0.60;;;19.10;99.90;;;;;;7288686;19;20186;-78
2023/07/27 08:19:25;;;;;;;2.90;0.80;;;19.20;99.90;;;;;;7287879;19;20184;-79
2023/07/27 08:21:51;;;;;;;1.20;0.70;;;19.20;99.90;;;;;;7285374;19;20192;-78
2023/07/27 08:24:17;;;;;;;0.90;0.60;;;19.30;99.90;;;;;;7286520;19;20201;-78
2023/07/27 08:26:42;;;;;;;2.47;0.70;;;19.20;99.90;;;;;;7286035;19;20177;-79
2023/07/27 08:29:08;;;;;;;1.00;0.50;;;19.20;99.90;;;;;;7285741;19;20186;-79
2023/07/27 08:31:33;;;;;;;1.80;0.60;;;19.30;99.90;;;;;;7301341;19;20211;-79
2023/07/27 08:33:59;;;;;;;1.17;0.60;;;19.30;99.90;;;;;;7301135;19;20191;-79
2023/07/27 08:36:25;;;;;;;2.50;0.70;;;19.30;99.90;;;;;;7287655;19;20735;-78
2023/07/27 08:38:51;;;;;;;2.80;0.60;;;19.50;99.90;;;;;;7285732;19;20192;-78
2023/07/27 08:41:16;;;;;;;3.00;0.60;;;19.60;99.90;;;;;;7286530;19;20187;-78
2023/07/27 08:43:42;;;;;;;0.77;0.50;;;19.70;99.90;;;;;;7285893;19;20653;-78
2023/07/27 08:46:08;;;;;;;1.50;0.53;;;19.70;99.90;;;;;;7281415;19;20186;-77
2023/07/27 08:48:35;;;;;;;0.73;0.53;;;19.50;99.90;;;;;;7291544;19;20302;-77
2023/07/27 08:51:01;;;;;;;1.00;0.47;;;19.60;99.90;;;;;;7302892;19;20188;-78
2023/07/27 08:53:26;;;;;;;0.77;0.47;;;19.70;99.90;;;;;;7285723;19;20639;-79
2023/07/27 08:55:52;;;;;;;1.33;0.47;;;19.70;99.90;;;;;;7282607;19;20682;-79
2023/07/27 08:58:18;;;;;;;2.40;0.90;;;19.70;99.90;;;;;;7282386;19;20196;-79
2023/07/27 09:00:44;;;;;;;1.47;0.80;;;19.80;99.90;;;;;;7281093;19;20203;-79
2023/07/27 09:03:10;;;;;;;1.67;1.00;;;19.90;99.90;;;;;;7279718;19;20672;-79
2023/07/27 09:05:42;;;;;;;2.43;1.30;;;19.90;99.90;;;;;;7282400;19;20207;-79
2023/07/27 09:08:13;;;;;;;2.07;1.30;;;19.90;99.90;;;;;;7284837;19;20187;-79
2023/07/27 09:10:41;;;;;;;3.73;1.50;;;20.10;99.90;;;;;;7282056;19;20209;-79
2023/07/27 09:13:07;;;;;;;3.30;1.47;;;20.10;99.90;;;;;;7279364;19;20689;-79
2023/07/27 09:15:35;;;;;;;2.40;1.17;;;20.10;99.90;;;;;;7305463;19;20271;-77
2023/07/27 09:18:02;;;;;;;3.07;1.20;;;20.20;99.90;;;;;;7307011;19;20220;-79
2023/07/27 09:20:29;;;;;;;2.27;1.47;;;20.10;99.90;;;;;;7285936;19;20191;-78
2023/07/27 09:22:56;;;;;;;3.27;1.40;;;20.00;99.90;;;;;;7283405;19;20196;-79
2023/07/27 09:25:23;;;;;;;3.27;1.43;;;19.90;99.90;;;;;;7284481;19;20274;-79
2023/07/27 09:27:55;;;;;;;4.03;1.40;;;20.00;99.90;;;;;;7282399;19;20187;-78
2023/07/27 09:30:25;;;;;;;2.50;1.30;;;20.00;99.90;;;;;;7283937;19;20260;-78
2023/07/27 09:32:51;;;;;;;3.47;1.47;;;20.10;99.90;;;;;;7282931;19;20195;-78
2023/07/27 09:35:19;;;;;;;3.00;1.27;;;20.00;99.90;;;;;;7284194;19;20263;-78
2023/07/27 09:37:47;;;;;;;2.67;1.30;;;19.80;99.90;;;;;;7284446;19;20257;-78
2023/07/27 09:40:22;;;;;;;3.47;1.43;;;19.60;99.90;;;;;;7284305;19;20200;-78
2023/07/27 09:42:48;;;;;;;4.00;1.70;;;19.50;99.90;;;;;;7283425;19;20197;-78
2023/07/27 09:45:14;;;;;;;3.30;1.63;;;19.40;99.90;;;;;;7283997;19;20189;-78
2023/07/27 09:47:41;;;;;;;5.50;1.73;;;19.30;99.90;;;;;;7283141;19;20198;-78
2023/07/27 09:50:08;;;;;;;3.57;1.80;;;19.30;99.90;;;;;;7283398;19;20247;-78
2023/07/27 09:52:36;;;;;;;4.73;1.60;;;19.20;99.90;;;;;;7302941;19;20271;-77
2023/07/27 09:55:02;;;;;;;3.50;1.60;;;19.20;99.90;;;;;;7304075;19;20675;-78
2023/07/27 09:57:29;;;;;;;7.13;1.67;;;19.10;99.90;;;;;;7283609;19;20193;-78
2023/07/27 09:59:55;;;;;;;3.70;1.67;;;19.20;99.90;;;;;;7285746;19;20196;-78
2023/07/27 10:02:22;;;;;;;3.67;1.53;;;19.20;99.90;;;;;;7288659;19;20198;-78
2023/07/27 10:04:51;;;;;;;4.63;2.03;;;19.20;99.90;;;;;;7290333;19;20230;-78
2023/07/27 10:07:21;;;;;;;3.20;1.87;;;19.30;99.90;;;;;;7289978;19;20188;-78
2023/07/27 10:09:47;;;;;;;4.03;1.80;;;19.30;99.90;;;;;;7289990;19;20190;-79
2023/07/27 10:12:30;;;;;;;4.10;1.60;;;19.30;99.90;;;;;;7289895;19;20780;-78
2023/07/27 10:15:17;;;;;;;4.37;1.80;;;19.50;99.90;;;;;;7289983;19;20184;-79
2023/07/27 10:17:51;;;;;;;4.23;1.73;;;19.50;99.90;;;;;;7187105;19;2004590;-79
2023/07/27 10:20:27;;;;;;;3.43;1.70;;;19.50;99.90;;;;;;7290022;19;20191;-77
2023/07/27 10:23:25;;;;;;;3.80;1.77;;;19.50;99.90;;;;;;7290594;19;20656;-79
2023/07/27 10:25:54;;;;;;;4.00;1.97;;;19.70;99.90;;;;;;7188508;19;2004748;-79
2023/07/27 10:28:29;;;;;;;5.40;1.63;;;19.80;99.90;;;;;;7290261;19;20204;-79
2023/07/27 10:31:14;;;;;;;3.90;1.80;;;20.10;99.90;;;;;;7290612;19;20185;-78
2023/07/27 10:34:07;;;;;;;2.87;1.47;;;20.20;99.90;;;;;;7186219;19;2004507;-78
2023/07/27 10:36:56;;;;;;;4.90;1.70;;;20.50;99.90;;;;;;7288571;19;20637;-78
2023/07/27 10:39:35;;;;;;;1.83;1.30;;;20.60;99.90;;;;;;7187730;19;2005011;-79
2023/07/27 10:42:03;;;;;;;2.27;1.30;;;20.70;99.90;;;;;;7289721;19;20221;-78
2023/07/27 10:44:57;;;;;;;4.20;1.40;;;20.80;99.90;;;;;;7289510;19;20662;-78
2023/07/27 10:47:24;;;;;;;3.03;1.20;;;20.80;99.90;;;;;;7187225;19;2005157;-78
2023/07/27 10:49:55;;;;;;;3.57;1.33;;;21.00;99.90;;;;;;7289494;19;20537;-78
2023/07/27 10:52:23;;;;;;;1.20;0.90;;;21.00;99.90;;;;;;7288794;19;20214;-78
2023/07/27 10:54:49;;;;;;;3.53;0.90;;;21.20;99.90;;;;;;7288376;19;20207;-78
2023/07/27 10:57:17;;;;;;;2.43;0.80;;;21.30;99.90;;;;;;7289940;19;20282;-79
2023/07/27 10:59:46;;;;;;;1.63;0.83;;;21.40;99.90;;;;;;7289984;19;20199;-79
2023/07/27 11:02:22;;;;;;;1.60;0.80;;;21.40;99.90;;;;;;7287555;19;20190;-79
2023/07/27 11:04:53;;;;;;;2.30;0.97;;;21.30;99.90;;;;;;7289232;19;20196;-79
2023/07/27 11:07:28;;;;;;;3.90;1.30;;;21.30;99.90;;;;;;7290202;19;20219;-79
2023/07/27 11:09:54;;;;;;;2.97;1.00;;;21.30;99.90;;;;;;7290042;19;20201;-80
2023/07/27 11:12:20;;;;;;;1.57;0.87;;;21.50;99.90;;;;;;7288480;19;20189;-79
2023/07/27 11:14:46;;;;;;;2.67;0.97;;;21.50;99.90;;;;;;7289890;19;20662;-80
2023/07/27 11:17:12;;;;;;;3.23;1.00;;;21.50;99.90;;;;;;7287556;19;20204;-79
2023/07/27 11:19:38;;;;;;;1.93;1.00;;;21.50;99.90;;;;;;7288555;19;20193;-79
2023/07/27 11:22:04;;;;;;;3.00;1.20;;;21.50;99.90;;;;;;7307853;19;20198;-79
2023/07/27 11:24:31;;;;;;;1.53;1.10;;;21.50;99.90;;;;;;7284949;19;20185;-79
2023/07/27 11:26:57;;;;;;;2.70;1.23;;;21.50;99.90;;;;;;7284647;19;20522;-79
2023/07/27 11:29:23;;;;;;;1.57;0.90;;;21.40;99.90;;;;;;7285491;19;20203;-80
2023/07/27 11:31:56;;;;;;;2.17;1.00;;;21.40;99.90;;;;;;7283745;19;20217;-78
2023/07/27 11:34:23;;;;;;;2.20;0.97;;;21.30;99.90;;;;;;7282739;19;20204;-80
2023/07/27 11:36:56;;;;;;;3.37;0.90;;;21.30;99.90;;;;;;7284622;19;20192;-78
2023/07/27 11:39:22;;;;;;;1.90;1.10;;;21.20;99.90;;;;;;7285026;19;20649;-78
2023/07/27 11:41:50;;;;;;;1.87;1.10;;;21.30;99.90;;;;;;7287729;19;20258;-79
2023/07/27 11:44:20;;;;;;;2.47;0.80;;;21.20;99.90;;;;;;7285923;19;20225;-79
2023/07/27 11:46:52;;;;;;;2.30;1.30;;;21.00;99.90;;;;;;7289099;19;20677;-80
2023/07/27 11:49:21;;;;;;;1.17;0.80;;;20.90;99.90;;;;;;7287372;19;20189;-79
2023/07/27 11:51:47;;;;;;;3.27;1.00;;;20.80;99.90;;;;;;7288406;19;20195;-79
2023/07/27 11:54:23;;;;;;;1.47;0.67;;;20.80;99.90;;;;;;7286502;19;20191;-78
2023/07/27 11:56:54;;;;;;;0.90;0.50;;;20.90;99.90;;;;;;7284856;19;20196;-78
2023/07/27 11:59:21;;;;;;;2.10;0.70;;;20.90;99.90;;;;;;7285844;19;20297;-78
2023/07/27 12:01:51;;;;;;;1.83;0.60;;;20.90;99.90;;;;;;7286563;19;20645;-78
2023/07/27 12:04:18;;;;;;;0.90;0.60;;;20.70;99.90;;;;;;7286902;19;20200;-78
2023/07/27 12:06:45;;;;;;;0.90;0.60;;;20.50;99.90;;;;;;7285744;19;20232;-78
2023/07/27 12:09:11;;;;;;;1.80;0.70;;;20.60;99.90;;;;;;7283773;19;20191;-79
2023/07/27 12:11:38;;;;;;;1.10;0.57;;;20.70;99.90;;;;;;7286608;19;20192;-78
2023/07/27 12:14:08;;;;;;;1.27;0.70;;;20.80;99.90;;;;;;7308018;19;20199;-78
2023/07/27 12:16:43;;;;;;;1.73;0.87;;;20.70;99.90;;;;;;7287634;19;20187;-78
2023/07/27 12:19:09;;;;;;;2.03;1.00;;;20.80;99.90;;;;;;7265696;19;20295;-78
2023/07/27 12:21:36;;;;;;;1.40;0.90;;;20.70;99.90;;;;;;7297875;19;20188;-78
2023/07/27 12:24:06;;;;;;;1.60;0.90;;;20.70;99.90;;;;;;7306559;19;20196;-78
2023/07/27 12:26:32;;;;;;;2.90;1.07;;;20.70;99.90;;;;;;7286467;19;20201;-79
2023/07/27 12:28:58;;;;;;;4.40;1.20;;;20.80;99.90;;;;;;7284929;19;20195;-79
2023/07/27 12:31:24;;;;;;;1.83;1.10;;;20.80;99.90;;;;;;7287358;19;20197;-78
2023/07/27 12:33:49;;;;;;;2.63;1.40;;;20.90;99.90;;;;;;7284856;19;20230;-78
2023/07/27 12:36:15;;;;;;;2.93;1.50;;;20.90;99.90;;;;;;7285371;19;20194;-78
2023/07/27 12:38:41;;;;;;;4.97;1.70;;;20.90;99.90;;;;;;7287152;19;20677;-78
2023/07/27 12:41:06;;;;;;;4.23;1.70;;;20.90;99.90;;;;;;7285148;19;20254;-78
2023/07/27 12:43:32;;;;;;;5.43;2.10;;;20.90;99.90;;;;;;7307122;19;20189;-79
2023/07/27 12:45:58;;;;;;;4.70;2.30;;;20.90;99.90;;;;;;7284027;19;20221;-79